Terminal Aerodrome Forecast
Issued by NWS Cleveland, OH

Home | Current Version | Previous Version | Graphics & Text | Print | Product List | Glossary On
Versions: 1 2 3 4 5 6 7 8 9 10 11 12 13 14 15 16 17 18 19
000
FTUS41 KCLE 181452 AAA
TAFERI
TAF AMD
KERI 181452Z 1815/1912 25006KT 4SM HZ BKN012 OVC025
     FM181600 27004KT P6SM BKN020
      TEMPO 1819/1821 SCT025
     FM182200 16006KT P6SM BKN035 BKN250
     FM190100 16008KT P6SM SCT030 BKN200
     FM190900 18012KT P6SM OVC100=

USA.gov is the U.S. government's official web portal to all federal, state and local government web resources and services.